Ungava - eastern half: Past 24 Hour Conditions

 

Qikiqtarjuaq Airport

09:00 PM EDT 25 October 2014
This table is a summary of hourly weather conditions for the past 24 hours.
Date / Time
(EDT)
Wind(knots) Conditions Visibility(km) Pressure(kPa) Air tempC) Relative humidity(%) Dew pointC) Wind Chill
25 October 2014
21:00 S 9 Mostly Cloudy 16 102.0 -8 73 -12 -15
20:00 SE 5 Clear 16 102.0 -11 77 -14 -16
19:00 SE 5 Clear 16 102.0 -10 77 -13 -15
18:00 SE 4 Clear 16 102.0 -9 73 -13 -14
17:00 NNW 6 Mostly Cloudy 24 102.0 -6 68 -11 -11
16:00 N 6 Mostly Cloudy 24 102.0 -6 72 -10 -11
15:00 SE 3 Mostly Cloudy 24 101.9 -7 74 -11 -10
14:00 SE 4 Light Snow 16 101.9 -8 77 -11 -12
13:00 SE 3 Light Snow 16 101.8 -7 78 -11 -10
12:00 NNW 6 Light Snow 16 101.9 -7 78 -10 -11
11:00 SE 3 Light Snow 16 101.8 -7 72 -11 -10
10:00 NW 6 Light Snow 13 101.8 -7 68 -12 -11
9:00 NE 8 Mostly Cloudy 24 101.8 -6 65 -12 -12
8:00 N 1 Cloudy 24 101.8 -8 58 -14 -9
7:00 S 3 Cloudy 16 101.8 -8 58 -15 -10
6:00 S 10 Cloudy 16 101.7 -8 62 -14 -15
5:00 S 10 gust 15 Cloudy 16 101.7 -8 60 -15 -15
4:00 SE 4 Mostly Cloudy 16 101.7 -9 59 -16 -14
3:00 NW 9 gust 17 Mostly Cloudy 16 101.7 -8 68 -13 -14
2:00 NW 13 Cloudy 16 101.7 -8 61 -14 -16
1:00 NNW 11 Cloudy 16 101.6 -7 64 -13 -14
0:00 NNW 15 Cloudy 16 101.6 -7 66 -12 -15
24 October 2014
23:00 N 21 Cloudy 16 101.5 -6 66 -11 -15
22:00 N 20 Mainly Clear 16 101.5 -5 64 -11 -14
21:00 N 16 Cloudy 16 101.5 -5 61 -11 -13
 
Map of Arctic - Eastern Arctic marine weather areas Baker Lake Airport Chesterfield Inlet Airport Coral Harbour Airport Gjoa Haven Airport Kugaaruk Airport Rankin Inlet Airport Shepherd Bay Airport Whale Cove Airport Arctic Bay Brevoort Island Qikiqtarjuaq Airport Cape Dorset Airport Cape Dyer Cape Hooper Clyde Airport Grise Fiord Airport Hall Beach Airport Igloolik Airport Iqaluit Airport Longstaff Bluff Pangnirtung Airport Pond Inlet Airport Repulse Bay Airport Resolute Airport Resolution Island Rowley Island Airport Taloyoak Airport Wager Bay Akulivik Airport Ivujivik Airport Puvirnituq Airport Kangiqsujuaq Airport Kangirsuk Airport Quaqtaq Airport Tasiujaq Airport Cape Kakkiviak Cape Kiglapait Nain Airport Saglek Cape Mercy Kimmirut Airport Aupaluk Airport Salluit Airport Kangiqsualujjuaq Airport Fort Ross
Legend: buoyBuoy land stationLand Station